createdAt,value
2017-11-28T00:01:07.761Z,0
2017-11-28T00:02:16.299Z,0
2017-11-28T00:03:24.845Z,0
2017-11-28T00:04:33.640Z,0
2017-11-28T00:05:42.720Z,0
2017-11-28T00:06:51.802Z,0
2017-11-28T00:08:00.612Z,0
2017-11-28T00:09:09.148Z,0
2017-11-28T00:10:18.512Z,0
2017-11-28T00:11:27.593Z,0
2017-11-28T00:12:36.945Z,0
2017-11-28T00:13:45.480Z,0
2017-11-28T00:14:54.018Z,0
2017-11-28T00:16:03.374Z,0
2017-11-28T00:17:11.915Z,0
2017-11-28T00:18:20.723Z,0
2017-11-28T00:19:30.094Z,0
2017-11-28T00:20:39.172Z,0
2017-11-28T00:21:47.911Z,0
2017-11-28T00:22:56.718Z,0
2017-11-28T00:24:05.526Z,0
2017-11-28T00:25:14.333Z,0
2017-11-28T00:26:22.868Z,0
2017-11-28T00:27:31.737Z,0
2017-11-28T00:28:40.517Z,0
2017-11-28T00:29:49.333Z,0
2017-11-28T00:30:57.874Z,0
2017-11-28T00:32:06.960Z,0
2017-11-28T00:33:15.768Z,0
2017-11-28T00:34:24.307Z,0
2017-11-28T00:35:32.836Z,0
2017-11-28T00:36:41.647Z,0
2017-11-28T00:37:50.455Z,0
2017-11-28T00:38:58.997Z,0
2017-11-28T00:40:07.535Z,0
2017-11-28T00:41:16.910Z,0
2017-11-28T00:42:25.990Z,0
2017-11-28T00:43:34.531Z,0
2017-11-28T00:44:43.611Z,0
2017-11-28T00:45:52.148Z,0
2017-11-28T00:47:00.967Z,0
2017-11-28T00:48:09.497Z,0
2017-11-28T00:49:18.569Z,0
2017-11-28T00:50:27.386Z,0
2017-11-28T00:51:36.195Z,0
2017-11-28T00:52:45.275Z,0
2017-11-28T00:53:53.811Z,0
2017-11-28T00:55:02.894Z,0
2017-11-28T00:56:11.428Z,0
2017-11-28T00:57:19.963Z,0
2017-11-28T00:58:28.778Z,0
2017-11-28T00:59:37.593Z,0
2017-11-28T01:00:46.405Z,0
2017-11-28T01:01:54.941Z,0
2017-11-28T01:03:03.480Z,0
2017-11-28T01:04:12.014Z,0
2017-11-28T01:05:21.093Z,0
2017-11-28T01:06:29.902Z,0
2017-11-28T01:07:38.710Z,0
2017-11-28T01:08:47.518Z,0
2017-11-28T01:09:56.056Z,0
2017-11-28T01:11:04.867Z,0
2017-11-28T01:12:13.675Z,0
2017-11-28T01:13:22.209Z,0
2017-11-28T01:14:31.022Z,0
2017-11-28T01:15:40.390Z,0
2017-11-28T01:16:48.925Z,0
2017-11-28T01:17:57.731Z,0
2017-11-28T01:19:06.813Z,0
2017-11-28T01:20:16.174Z,0
2017-11-28T01:21:25.266Z,0
2017-11-28T01:22:33.801Z,0
2017-11-28T01:23:42.606Z,0
2017-11-28T01:24:51.415Z,0
2017-11-28T01:25:59.953Z,0
2017-11-28T01:27:08.762Z,0
2017-11-28T01:28:17.567Z,0
2017-11-28T01:29:26.376Z,0
2017-11-28T01:30:35.182Z,0
2017-11-28T01:31:44.278Z,0
2017-11-28T01:32:53.088Z,0
2017-11-28T01:34:01.904Z,0
2017-11-28T01:35:10.987Z,0
2017-11-28T01:36:19.523Z,0
2017-11-28T01:37:28.333Z,0
2017-11-28T01:38:36.869Z,0
2017-11-28T01:39:45.956Z,0
2017-11-28T01:40:54.770Z,0
2017-11-28T01:42:03.856Z,0
2017-11-28T01:43:13.217Z,0
2017-11-28T01:44:21.754Z,0
2017-11-28T01:45:30.291Z,0
2017-11-28T01:46:39.097Z,0
2017-11-28T01:47:47.909Z,0
2017-11-28T01:48:56.998Z,0
2017-11-28T01:50:05.812Z,0
2017-11-28T01:51:14.896Z,0
2017-11-28T01:52:23.440Z,0
2017-11-28T01:53:32.796Z,0
2017-11-28T01:54:41.884Z,0
2017-11-28T01:55:50.685Z,0
2017-11-28T01:56:59.224Z,0
2017-11-28T01:58:07.758Z,0
2017-11-28T01:59:16.849Z,0
2017-11-28T02:00:25.931Z,0
2017-11-28T02:01:34.741Z,0
2017-11-28T02:02:43.559Z,0
2017-11-28T02:03:52.641Z,0
2017-11-28T02:05:01.450Z,0
2017-11-28T02:06:10.260Z,0
2017-11-28T02:07:19.366Z,0
2017-11-28T02:08:27.890Z,0
2017-11-28T02:09:36.427Z,0
2017-11-28T02:10:45.242Z,0
2017-11-28T02:11:54.050Z,0
2017-11-28T02:13:02.585Z,0
2017-11-28T02:14:11.124Z,0
2017-11-28T02:15:20.207Z,0
2017-11-28T02:16:28.740Z,0
2017-11-28T02:17:37.551Z,0
2017-11-28T02:18:46.628Z,0
2017-11-28T02:19:55.713Z,0
2017-11-28T02:21:04.791Z,0
2017-11-28T02:22:14.144Z,0
2017-11-28T02:23:22.682Z,0
2017-11-28T02:24:31.218Z,0
2017-11-28T02:25:40.300Z,0
2017-11-28T02:26:48.836Z,0
2017-11-28T02:27:57.648Z,0
2017-11-28T02:29:06.459Z,0
2017-11-28T02:30:15.280Z,0
2017-11-28T02:31:23.824Z,0
2017-11-28T02:32:32.634Z,0
2017-11-28T02:33:41.169Z,0
2017-11-28T02:34:49.707Z,0
2017-11-28T02:35:58.790Z,0
2017-11-28T02:37:07.872Z,0
2017-11-28T02:38:16.404Z,0
2017-11-28T02:39:25.497Z,0
2017-11-28T02:40:34.306Z,0
2017-11-28T02:41:43.418Z,0
2017-11-28T02:42:52.512Z,0
2017-11-28T02:44:01.325Z,0
2017-11-28T02:45:10.138Z,0
2017-11-28T02:46:19.505Z,0
2017-11-28T02:47:28.312Z,0
2017-11-28T02:48:36.850Z,0
2017-11-28T02:49:45.928Z,0
2017-11-28T02:50:55.028Z,0
2017-11-28T02:52:03.553Z,0
2017-11-28T02:53:12.925Z,0
2017-11-28T02:54:21.726Z,0
2017-11-28T02:55:30.264Z,0
2017-11-28T02:56:39.077Z,0
2017-11-28T02:57:47.880Z,0
2017-11-28T02:58:56.686Z,0
2017-11-28T03:00:05.497Z,0
2017-11-28T03:01:14.314Z,0
2017-11-28T03:02:23.120Z,0
2017-11-28T03:03:31.931Z,0
2017-11-28T03:04:41.289Z,0
2017-11-28T03:05:49.825Z,0
2017-11-28T03:06:58.908Z,0
2017-11-28T03:08:08.001Z,0
2017-11-28T03:09:16.822Z,0
2017-11-28T03:10:25.365Z,0
2017-11-28T03:11:33.904Z,0
2017-11-28T03:12:42.711Z,0
2017-11-28T03:13:51.248Z,0
2017-11-28T03:14:59.783Z,0
2017-11-28T03:16:09.138Z,0
2017-11-28T03:17:17.957Z,0
2017-11-28T03:18:26.494Z,0
2017-11-28T03:19:35.301Z,0
2017-11-28T03:20:44.116Z,0
2017-11-28T03:21:52.902Z,0
2017-11-28T03:23:01.717Z,0
2017-11-28T03:24:10.796Z,0
2017-11-28T03:25:19.607Z,0
2017-11-28T03:26:28.411Z,0
2017-11-28T03:27:37.520Z,0
2017-11-28T03:28:46.331Z,0
2017-11-28T03:29:55.146Z,0
2017-11-28T03:31:03.687Z,0
2017-11-28T03:32:12.224Z,0
2017-11-28T03:33:21.304Z,0
2017-11-28T03:34:30.113Z,0
2017-11-28T03:35:38.653Z,0
2017-11-28T03:36:48.017Z,0
2017-11-28T03:37:57.127Z,0
2017-11-28T03:39:06.209Z,0
2017-11-28T03:40:14.748Z,0
2017-11-28T03:41:24.104Z,0
2017-11-28T03:42:33.189Z,0
2017-11-28T03:43:41.999Z,0
2017-11-28T03:44:50.537Z,0
2017-11-28T03:45:59.072Z,0
2017-11-28T03:47:07.883Z,0
2017-11-28T03:48:17.003Z,0
2017-11-28T03:49:25.538Z,0
2017-11-28T03:50:34.353Z,0
2017-11-28T03:51:43.432Z,0
2017-11-28T03:52:52.248Z,0
2017-11-28T03:54:01.368Z,0
2017-11-28T03:55:10.179Z,0
2017-11-28T03:56:18.711Z,0
2017-11-28T03:57:27.805Z,0
2017-11-28T03:58:36.622Z,0
2017-11-28T03:59:45.430Z,0
2017-11-28T04:00:53.967Z,0
2017-11-28T04:02:02.503Z,0
2017-11-28T04:03:11.043Z,0
2017-11-28T04:04:19.848Z,0
2017-11-28T04:05:29.004Z,0
2017-11-28T04:06:37.818Z,0
2017-11-28T04:07:46.625Z,0
2017-11-28T04:08:55.163Z,0
2017-11-28T04:10:04.257Z,0
2017-11-28T04:11:13.060Z,0
2017-11-28T04:12:22.421Z,0
2017-11-28T04:13:31.500Z,0
2017-11-28T04:14:40.312Z,0
2017-11-28T04:15:49.126Z,0
2017-11-28T04:16:57.943Z,0
2017-11-28T04:18:07.020Z,0
2017-11-28T04:19:15.558Z,0
2017-11-28T04:20:24.096Z,0
2017-11-28T04:21:32.632Z,0
2017-11-28T04:22:41.439Z,0
2017-11-28T04:23:50.248Z,0
2017-11-28T04:24:59.058Z,0
2017-11-28T04:26:07.595Z,0
2017-11-28T04:27:16.133Z,0
2017-11-28T04:28:24.669Z,0
2017-11-28T04:29:33.755Z,0
2017-11-28T04:30:43.236Z,0
2017-11-28T04:31:52.039Z,0
2017-11-28T04:33:00.576Z,0
2017-11-28T04:34:09.389Z,0
2017-11-28T04:35:18.742Z,0
2017-11-28T04:36:27.550Z,0
2017-11-28T04:37:36.362Z,0
2017-11-28T04:38:44.905Z,0
2017-11-28T04:39:53.709Z,0
2017-11-28T04:41:02.796Z,0
2017-11-28T04:42:11.875Z,0
2017-11-28T04:43:20.684Z,0
2017-11-28T04:44:29.519Z,0
2017-11-28T04:45:38.812Z,0
2017-11-28T04:46:47.890Z,0
2017-11-28T04:47:56.798Z,0
2017-11-28T04:49:05.605Z,0
2017-11-28T04:50:14.411Z,0
2017-11-28T04:51:23.219Z,0
2017-11-28T04:52:31.754Z,0
2017-11-28T04:53:40.859Z,0
2017-11-28T04:54:49.671Z,0
2017-11-28T04:55:58.207Z,0
2017-11-28T04:57:06.745Z,0
2017-11-28T04:58:15.280Z,0
2017-11-28T04:59:23.821Z,0
2017-11-28T05:00:32.364Z,0
2017-11-28T05:01:41.761Z,0
2017-11-28T05:02:50.296Z,0
2017-11-28T05:03:58.835Z,0
2017-11-28T05:05:07.918Z,0
2017-11-28T05:06:16.727Z,0
2017-11-28T05:07:25.534Z,0
2017-11-28T05:08:34.352Z,0
2017-11-28T05:09:43.437Z,0
2017-11-28T05:10:51.978Z,0
2017-11-28T05:12:00.797Z,0
2017-11-28T05:13:09.618Z,0
2017-11-28T05:14:18.702Z,0
2017-11-28T05:15:27.507Z,0
2017-11-28T05:16:36.042Z,0
2017-11-28T05:17:44.853Z,0
2017-11-28T05:18:53.931Z,0
2017-11-28T05:20:02.757Z,0
2017-11-28T05:21:11.276Z,0
2017-11-28T05:22:20.379Z,0
2017-11-28T05:23:28.913Z,0
2017-11-28T05:24:37.455Z,0
2017-11-28T05:25:45.991Z,0
2017-11-28T05:26:55.079Z,0
2017-11-28T05:28:03.887Z,0
2017-11-28T05:29:12.695Z,0
2017-11-28T05:30:21.235Z,0
2017-11-28T05:31:29.765Z,0
2017-11-28T05:32:38.298Z,0
2017-11-28T05:33:47.109Z,0
2017-11-28T05:34:55.643Z,0
2017-11-28T05:36:04.178Z,0
2017-11-28T05:37:13.001Z,0
2017-11-28T05:38:22.088Z,0
2017-11-28T05:39:30.625Z,0
2017-11-28T05:40:39.163Z,0
2017-11-28T05:41:47.700Z,0
2017-11-28T05:42:56.518Z,0
2017-11-28T05:44:05.327Z,0
2017-11-28T05:45:14.413Z,0
2017-11-28T05:46:22.949Z,0
2017-11-28T05:47:31.759Z,0
2017-11-28T05:48:40.840Z,0
2017-11-28T05:49:49.653Z,0
2017-11-28T05:50:58.743Z,0
2017-11-28T05:52:07.783Z,0
2017-11-28T05:53:16.320Z,0
2017-11-28T05:54:25.399Z,0
2017-11-28T05:55:33.936Z,0
2017-11-28T05:56:42.471Z,0
2017-11-28T05:57:51.559Z,0
2017-11-28T05:59:00.364Z,0
2017-11-28T06:00:08.904Z,0
2017-11-28T06:01:17.711Z,0
2017-11-28T06:02:26.793Z,0
2017-11-28T06:03:35.332Z,0
2017-11-28T06:04:44.152Z,0
2017-11-28T06:05:52.695Z,0
2017-11-28T06:07:01.503Z,0
2017-11-28T06:08:10.325Z,0
2017-11-28T06:09:19.133Z,0
2017-11-28T06:10:27.943Z,0
2017-11-28T06:11:37.023Z,0
2017-11-28T06:12:46.115Z,0
2017-11-28T06:13:55.472Z,0
2017-11-28T06:15:04.007Z,0
2017-11-28T06:16:12.546Z,0
2017-11-28T06:17:21.367Z,0
2017-11-28T06:18:29.904Z,0
2017-11-28T06:19:38.441Z,0
2017-11-28T06:20:47.255Z,0
2017-11-28T06:21:56.345Z,0
2017-11-28T06:23:05.425Z,0
2017-11-28T06:24:14.238Z,0
2017-11-28T06:25:23.071Z,0
2017-11-28T06:26:31.898Z,0
2017-11-28T06:27:40.993Z,0
2017-11-28T06:28:49.802Z,0
2017-11-28T06:29:58.339Z,0
2017-11-28T06:31:07.149Z,0
2017-11-28T06:32:15.688Z,0
2017-11-28T06:33:24.781Z,0
2017-11-28T06:34:33.908Z,0
2017-11-28T06:35:42.453Z,0
2017-11-28T06:36:51.265Z,0
2017-11-28T06:38:00.072Z,0
2017-11-28T06:39:09.425Z,0
2017-11-28T06:40:17.966Z,0
2017-11-28T06:41:27.079Z,4
2017-11-28T06:42:35.616Z,0
2017-11-28T06:43:44.430Z,0
2017-11-28T06:44:53.245Z,4
2017-11-28T06:46:02.052Z,4
2017-11-28T06:47:10.588Z,4
2017-11-28T06:48:19.125Z,4
2017-11-28T06:49:27.938Z,8
2017-11-28T06:50:36.746Z,12
2017-11-28T06:51:45.832Z,8
2017-11-28T06:52:54.378Z,8
2017-11-28T06:54:03.464Z,12
2017-11-28T06:55:13.043Z,12
2017-11-28T06:56:21.577Z,16
2017-11-28T06:57:30.980Z,16
2017-11-28T06:58:39.787Z,16
2017-11-28T06:59:48.629Z,20
2017-11-28T07:00:57.728Z,28
2017-11-28T07:02:06.267Z,40
2017-11-28T07:03:14.804Z,44
2017-11-28T07:04:25.139Z,44
2017-11-28T07:05:33.947Z,56
2017-11-28T07:06:42.755Z,76
2017-11-28T07:07:51.294Z,92
2017-11-28T07:09:00.104Z,100
2017-11-28T07:10:08.917Z,120
2017-11-28T07:11:17.454Z,136
2017-11-28T07:12:26.537Z,152
2017-11-28T07:13:35.361Z,168
2017-11-28T07:14:43.891Z,176
2017-11-28T07:15:52.709Z,192
2017-11-28T07:17:01.244Z,208
2017-11-28T07:18:10.335Z,212
2017-11-28T07:19:18.882Z,224
2017-11-28T07:20:28.260Z,220
2017-11-28T07:21:37.361Z,228
2017-11-28T07:22:45.897Z,268
2017-11-28T07:23:54.704Z,288
2017-11-28T07:25:03.792Z,324
2017-11-28T07:26:12.879Z,372
2017-11-28T07:27:21.421Z,404
2017-11-28T07:28:29.954Z,432
2017-11-28T07:29:38.782Z,464
2017-11-28T07:30:47.667Z,500
2017-11-28T07:31:56.556Z,568
2017-11-28T07:33:05.142Z,616
2017-11-28T07:34:14.269Z,656
2017-11-28T07:35:23.148Z,692
2017-11-28T07:36:32.298Z,724
2017-11-28T07:37:41.381Z,756
2017-11-28T07:38:51.629Z,784
2017-11-28T07:40:01.549Z,812
2017-11-28T07:41:10.358Z,832
2017-11-28T07:42:18.983Z,856
2017-11-28T07:43:28.082Z,884
2017-11-28T07:44:36.905Z,908
2017-11-28T07:45:45.723Z,936
2017-11-28T07:46:54.290Z,956
2017-11-28T07:48:02.836Z,988
2017-11-28T07:49:11.914Z,1016
2017-11-28T07:50:21.012Z,1052
2017-11-28T07:51:29.561Z,1092
2017-11-28T07:52:38.369Z,1148
2017-11-28T07:53:47.452Z,1176
2017-11-28T07:54:56.268Z,1196
2017-11-28T07:56:05.349Z,1204
2017-11-28T07:57:13.887Z,1216
2017-11-28T07:58:22.695Z,1240
2017-11-28T07:59:31.233Z,1284
2017-11-28T08:00:40.316Z,1360
2017-11-28T08:01:49.126Z,1392
2017-11-28T08:02:57.934Z,1420
2017-11-28T08:04:06.474Z,1444
2017-11-28T08:05:15.280Z,1460
2017-11-28T08:06:23.824Z,1488
2017-11-28T08:07:32.634Z,1508
2017-11-28T08:08:41.445Z,1536
2017-11-28T08:09:50.777Z,1560
2017-11-28T08:10:59.784Z,1584
2017-11-28T08:12:08.612Z,1616
2017-11-28T08:13:17.153Z,1644
2017-11-28T08:14:26.239Z,1656
2017-11-28T08:15:35.320Z,1684
2017-11-28T08:16:43.871Z,1704
2017-11-28T08:17:52.676Z,1716
2017-11-28T08:19:01.217Z,1744
2017-11-28T08:20:10.579Z,1756
2017-11-28T08:21:19.444Z,1768
2017-11-28T08:22:28.254Z,1800
2017-11-28T08:23:36.797Z,1820
2017-11-28T08:24:45.336Z,1792
2017-11-28T08:25:54.145Z,1856
2017-11-28T08:27:02.953Z,1868
2017-11-28T08:28:12.050Z,1892
2017-11-28T08:29:20.868Z,1908
2017-11-28T08:30:29.416Z,1928
2017-11-28T08:31:38.238Z,1936
2017-11-28T08:32:47.318Z,1964
2017-11-28T08:33:55.868Z,1968
2017-11-28T08:35:04.711Z,1964
2017-11-28T08:36:13.254Z,1988
2017-11-28T08:37:22.345Z,1992
2017-11-28T08:38:30.889Z,1996
2017-11-28T08:39:40.066Z,2008
2017-11-28T08:40:48.651Z,2024
2017-11-28T08:41:57.486Z,2048
2017-11-28T08:43:07.805Z,2064
2017-11-28T08:44:16.415Z,2076
2017-11-28T08:45:24.955Z,2096
2017-11-28T08:46:34.401Z,2112
2017-11-28T08:47:43.222Z,2136
2017-11-28T08:48:52.038Z,2172
2017-11-28T08:50:00.591Z,2240
2017-11-28T08:51:09.471Z,2288
2017-11-28T08:52:18.013Z,2300
2017-11-28T08:53:26.616Z,2308
2017-11-28T08:54:35.190Z,2260
2017-11-28T08:55:44.015Z,2228
2017-11-28T08:56:52.720Z,2232
2017-11-28T08:58:01.259Z,2248
2017-11-28T08:59:10.078Z,2264
2017-11-28T09:00:18.909Z,2272
2017-11-28T09:01:27.727Z,2280
2017-11-28T09:02:36.817Z,2296
2017-11-28T09:03:45.629Z,2320
2017-11-28T09:04:54.189Z,2332
2017-11-28T09:06:03.368Z,2324
2017-11-28T09:07:12.183Z,2344
2017-11-28T09:08:20.717Z,2376
2017-11-28T09:09:29.572Z,2392
2017-11-28T09:10:38.113Z,2400
2017-11-28T09:11:46.956Z,2396
2017-11-28T09:12:55.787Z,2392
2017-11-28T09:14:04.329Z,2412
2017-11-28T09:15:13.415Z,2440
2017-11-28T09:16:22.226Z,2448
2017-11-28T09:17:30.764Z,2460
2017-11-28T09:18:39.336Z,2460
2017-11-28T09:19:48.115Z,2456
2017-11-28T09:20:57.006Z,2492
2017-11-28T09:22:06.363Z,2500
2017-11-28T09:23:15.176Z,2500
2017-11-28T09:24:23.987Z,2520
2017-11-28T09:25:32.531Z,2560
2017-11-28T09:26:41.102Z,2504
2017-11-28T09:27:49.921Z,2508
2017-11-28T09:28:58.452Z,2512
2017-11-28T09:30:07.543Z,2556
2017-11-28T09:31:16.086Z,2572
2017-11-28T09:32:24.617Z,2560
2017-11-28T09:33:33.223Z,2568
2017-11-28T09:34:42.160Z,2576
2017-11-28T09:35:50.705Z,2564
2017-11-28T09:36:59.242Z,2580
2017-11-28T09:38:08.331Z,2600
2017-11-28T09:39:16.874Z,2376
2017-11-28T09:40:25.685Z,2528
2017-11-28T09:41:34.224Z,2628
2017-11-28T09:42:42.766Z,2640
2017-11-28T09:43:51.876Z,2648
2017-11-28T09:45:00.698Z,2624
2017-11-28T09:46:09.824Z,2640
2017-11-28T09:47:18.908Z,2640
2017-11-28T09:48:28.276Z,2644
2017-11-28T09:49:37.632Z,2696
2017-11-28T09:50:46.443Z,2680
2017-11-28T09:51:55.559Z,2644
2017-11-28T09:53:04.094Z,2688
2017-11-28T09:54:12.640Z,2672
2017-11-28T09:55:21.237Z,2692
2017-11-28T09:56:29.777Z,2840
2017-11-28T09:57:38.591Z,2852
2017-11-28T09:58:47.401Z,2748
2017-11-28T09:59:55.942Z,2760
2017-11-28T10:01:05.041Z,3068
2017-11-28T10:02:13.576Z,2944
2017-11-28T10:03:22.700Z,2660
2017-11-28T10:04:31.287Z,2492
2017-11-28T10:05:39.828Z,2728
2017-11-28T10:06:48.718Z,2720
2017-11-28T10:07:57.579Z,2740
2017-11-28T10:09:06.132Z,2752
2017-11-28T10:10:14.971Z,2980
2017-11-28T10:11:23.815Z,3064
2017-11-28T10:12:32.663Z,2808
2017-11-28T10:13:41.520Z,2776
2017-11-28T10:14:50.351Z,2756
2017-11-28T10:16:00.008Z,2644
2017-11-28T10:17:08.850Z,2452
2017-11-28T10:18:17.931Z,2720
2017-11-28T10:19:26.475Z,2896
2017-11-28T10:20:35.027Z,2872
2017-11-28T10:21:44.110Z,2744
2017-11-28T10:22:52.922Z,2852
2017-11-28T10:24:01.733Z,2968
2017-11-28T10:25:10.273Z,2988
2017-11-28T10:26:19.366Z,3012
2017-11-28T10:27:28.240Z,3216
2017-11-28T10:28:37.061Z,3696
2017-11-28T10:29:45.603Z,3324
2017-11-28T10:30:54.627Z,3212
2017-11-28T10:32:03.436Z,3068
2017-11-28T10:33:11.985Z,2956
2017-11-28T10:34:20.804Z,2884
2017-11-28T10:35:29.616Z,2960
2017-11-28T10:36:38.714Z,3824
2017-11-28T10:37:47.253Z,3912
2017-11-28T10:38:55.792Z,3112
2017-11-28T10:40:04.608Z,2952
2017-11-28T10:41:13.700Z,3012
2017-11-28T10:42:22.240Z,3048
2017-11-28T10:43:31.064Z,2976
2017-11-28T10:44:40.032Z,3400
2017-11-28T10:45:49.107Z,4024
2017-11-28T10:46:58.193Z,3152
2017-11-28T10:48:07.091Z,2952
2017-11-28T10:49:15.926Z,3348
2017-11-28T10:50:24.762Z,3464
2017-11-28T10:51:33.323Z,5176
2017-11-28T10:52:42.439Z,4928
2017-11-28T10:53:51.283Z,3932
2017-11-28T10:55:00.406Z,2832
2017-11-28T10:56:09.510Z,3040
2017-11-28T10:57:18.053Z,3756
2017-11-28T10:58:26.600Z,5480
2017-11-28T10:59:35.131Z,5216
2017-11-28T11:00:43.948Z,3032
2017-11-28T11:01:53.055Z,2872
2017-11-28T11:03:01.602Z,3784
2017-11-28T11:04:10.708Z,6404
2017-11-28T11:05:19.807Z,5764
2017-11-28T11:06:28.350Z,4692
2017-11-28T11:07:36.893Z,3044
2017-11-28T11:08:46.255Z,2588
2017-11-28T11:09:54.808Z,2656
2017-11-28T11:11:03.686Z,2820
2017-11-28T11:12:12.783Z,3248
2017-11-28T11:13:21.373Z,3092
2017-11-28T11:14:30.464Z,3276
2017-11-28T11:15:40.562Z,4244
2017-11-28T11:16:49.567Z,4528
2017-11-28T11:17:58.380Z,4872
2017-11-28T11:19:06.921Z,3360
2017-11-28T11:20:15.464Z,3480
2017-11-28T11:21:24.002Z,3128
2017-11-28T11:22:32.813Z,3060
2017-11-28T11:23:41.351Z,4772
2017-11-28T11:24:50.552Z,4752
2017-11-28T11:25:59.637Z,3864
2017-11-28T11:27:08.451Z,4424
2017-11-28T11:28:17.535Z,5304
2017-11-28T11:29:26.348Z,3932
2017-11-28T11:30:35.436Z,2984
2017-11-28T11:31:44.587Z,2856
2017-11-28T11:32:53.181Z,3020
2017-11-28T11:34:02.013Z,3108
2017-11-28T11:35:10.837Z,3608
2017-11-28T11:36:19.377Z,3236
2017-11-28T11:37:28.189Z,3120
2017-11-28T11:38:37.014Z,2680
2017-11-28T11:39:45.554Z,2928
2017-11-28T11:40:54.366Z,2956
2017-11-28T11:42:03.180Z,2964
2017-11-28T11:43:11.991Z,3112
2017-11-28T11:44:20.534Z,3292
2017-11-28T11:45:29.346Z,3112
2017-11-28T11:46:38.750Z,3008
2017-11-28T11:47:47.293Z,3108
2017-11-28T11:48:55.837Z,3092
2017-11-28T11:50:04.651Z,3220
2017-11-28T11:51:13.736Z,3304
2017-11-28T11:52:22.572Z,3020
2017-11-28T11:53:31.388Z,3068
2017-11-28T11:54:40.199Z,3052
2017-11-28T11:55:49.013Z,3132
2017-11-28T11:56:57.845Z,3076
2017-11-28T11:58:06.641Z,3012
2017-11-28T11:59:15.462Z,3052
2017-11-28T12:00:24.272Z,3048
2017-11-28T12:01:33.092Z,3092
2017-11-28T12:02:41.633Z,3016
2017-11-28T12:03:50.457Z,3056
2017-11-28T12:04:59.551Z,3048
2017-11-28T12:06:08.102Z,3056
2017-11-28T12:07:16.640Z,3072
2017-11-28T12:08:25.184Z,3152
2017-11-28T12:09:33.724Z,3208
2017-11-28T12:10:44.389Z,3444
2017-11-28T12:11:54.009Z,3696
2017-11-28T12:13:02.825Z,3992
2017-11-28T12:14:12.191Z,3844
2017-11-28T12:15:21.004Z,4276
2017-11-28T12:16:30.089Z,4644
2017-11-28T12:17:38.914Z,3960
2017-11-28T12:18:47.997Z,5076
2017-11-28T12:19:56.537Z,4660
2017-11-28T12:21:05.356Z,5000
2017-11-28T12:22:14.234Z,4896
2017-11-28T12:23:23.055Z,4820
2017-11-28T12:24:31.593Z,4836
2017-11-28T12:25:40.410Z,4712
2017-11-28T12:26:49.244Z,4136
2017-11-28T12:27:57.797Z,3740
2017-11-28T12:29:06.613Z,4392
2017-11-28T12:30:15.717Z,4700
2017-11-28T12:31:24.527Z,4300
2017-11-28T12:32:33.070Z,4512
2017-11-28T12:33:41.609Z,5728
2017-11-28T12:34:50.437Z,5484
2017-11-28T12:35:59.287Z,4168
2017-11-28T12:37:07.832Z,4148
2017-11-28T12:38:16.656Z,4908
2017-11-28T12:39:25.197Z,3988
2017-11-28T12:40:34.563Z,4996
2017-11-28T12:41:43.421Z,5188
2017-11-28T12:42:51.968Z,6344
2017-11-28T12:44:00.823Z,6856
2017-11-28T12:45:09.928Z,6752
2017-11-28T12:46:18.772Z,7036
2017-11-28T12:47:27.664Z,7032
2017-11-28T12:48:36.771Z,6320
2017-11-28T12:49:45.323Z,5588
2017-11-28T12:50:53.875Z,5576
2017-11-28T12:52:02.996Z,5108
2017-11-28T12:53:12.599Z,4976
2017-11-28T12:54:22.693Z,5004
2017-11-28T12:55:31.850Z,4668
2017-11-28T12:56:41.270Z,4392
2017-11-28T12:57:50.338Z,3600
2017-11-28T12:58:59.287Z,3484
2017-11-28T13:00:08.105Z,3432
2017-11-28T13:01:16.970Z,3476
2017-11-28T13:02:27.444Z,3944
2017-11-28T13:03:36.549Z,4316
2017-11-28T13:04:45.110Z,4124
2017-11-28T13:05:54.198Z,3392
2017-11-28T13:07:03.021Z,2816
2017-11-28T13:08:12.112Z,2504
2017-11-28T13:09:20.932Z,2528
2017-11-28T13:10:29.755Z,2196
2017-11-28T13:11:38.311Z,2880
2017-11-28T13:12:46.849Z,3128
2017-11-28T13:13:55.396Z,2868
2017-11-28T13:15:04.207Z,2800
2017-11-28T13:16:12.751Z,2616
2017-11-28T13:17:22.107Z,2500
2017-11-28T13:18:30.923Z,2312
2017-11-28T13:19:40.008Z,2448
2017-11-28T13:20:48.548Z,2424
2017-11-28T13:21:57.712Z,2532
2017-11-28T13:23:06.798Z,2508
2017-11-28T13:24:15.350Z,2152
2017-11-28T13:25:24.811Z,1864
2017-11-28T13:26:33.933Z,1888
2017-11-28T13:27:42.746Z,2028
2017-11-28T13:28:51.557Z,1904
2017-11-28T13:30:00.405Z,1796
2017-11-28T13:31:09.269Z,2056
2017-11-28T13:32:18.405Z,2112
2017-11-28T13:33:27.240Z,1976
2017-11-28T13:34:36.065Z,1908
2017-11-28T13:35:44.885Z,1820
2017-11-28T13:36:53.987Z,1844
2017-11-28T13:38:02.534Z,1900
2017-11-28T13:39:11.892Z,1888
2017-11-28T13:40:21.000Z,1780
2017-11-28T13:41:30.005Z,1604
2017-11-28T13:42:38.813Z,1520
2017-11-28T13:43:47.633Z,1500
2017-11-28T13:44:56.180Z,1492
2017-11-28T13:46:05.001Z,1552
2017-11-28T13:47:13.545Z,1540
2017-11-28T13:48:22.353Z,1580
2017-11-28T13:49:31.434Z,1648
2017-11-28T13:50:39.976Z,1748
2017-11-28T13:51:48.799Z,1724
2017-11-28T13:52:57.887Z,1712
2017-11-28T13:54:06.979Z,1760
2017-11-28T13:55:15.725Z,1680
2017-11-28T13:56:24.319Z,1656
2017-11-28T13:57:32.854Z,1620
2017-11-28T13:58:41.392Z,1648
2017-11-28T13:59:50.206Z,1668
2017-11-28T14:00:58.745Z,1680
2017-11-28T14:02:07.286Z,1752
2017-11-28T14:03:15.821Z,1808
2017-11-28T14:04:24.357Z,1964
2017-11-28T14:05:33.437Z,2056
2017-11-28T14:06:42.800Z,2348
2017-11-28T14:07:51.898Z,2248
2017-11-28T14:09:00.988Z,2164
2017-11-28T14:10:09.525Z,2096
2017-11-28T14:11:18.337Z,2024
2017-11-28T14:12:26.878Z,1960
2017-11-28T14:13:35.696Z,1952
2017-11-28T14:14:44.538Z,1920
2017-11-28T14:15:53.346Z,1864
2017-11-28T14:17:01.912Z,1812
2017-11-28T14:18:11.270Z,1752
2017-11-28T14:19:19.814Z,1684
2017-11-28T14:20:28.353Z,1596
2017-11-28T14:21:37.446Z,1532
2017-11-28T14:22:45.983Z,1484
2017-11-28T14:23:54.842Z,1448
2017-11-28T14:25:03.949Z,1420
2017-11-28T14:26:12.507Z,1400
2017-11-28T14:27:21.048Z,1388
2017-11-28T14:28:29.596Z,1376
2017-11-28T14:29:38.398Z,1376
2017-11-28T14:30:46.936Z,1372
2017-11-28T14:31:55.753Z,1372
2017-11-28T14:33:04.296Z,1364
2017-11-28T14:34:13.112Z,1356
2017-11-28T14:35:21.924Z,1280
2017-11-28T14:36:30.738Z,1276
2017-11-28T14:37:39.821Z,1348
2017-11-28T14:38:48.634Z,1332
2017-11-28T14:39:57.451Z,1312
2017-11-28T14:41:06.261Z,1288
2017-11-28T14:42:15.347Z,1244
2017-11-28T14:43:24.196Z,1224
2017-11-28T14:44:32.766Z,1192
2017-11-28T14:45:41.822Z,1156
2017-11-28T14:46:50.906Z,1160
2017-11-28T14:47:59.717Z,1088
2017-11-28T14:49:08.813Z,1064
2017-11-28T14:50:17.629Z,1012
2017-11-28T14:51:26.453Z,972
2017-11-28T14:52:35.816Z,964
2017-11-28T14:53:44.511Z,904
2017-11-28T14:54:53.354Z,888
2017-11-28T14:56:02.479Z,860
2017-11-28T14:57:11.024Z,852
2017-11-28T14:58:19.838Z,840
2017-11-28T14:59:28.658Z,836
2017-11-28T15:00:37.485Z,816
2017-11-28T15:01:46.011Z,804
2017-11-28T15:02:55.093Z,800
2017-11-28T15:04:03.909Z,788
2017-11-28T15:05:13.004Z,764
2017-11-28T15:06:21.866Z,744
2017-11-28T15:07:30.414Z,720
2017-11-28T15:08:38.949Z,676
2017-11-28T15:09:47.487Z,644
2017-11-28T15:10:56.843Z,608
2017-11-28T15:12:05.933Z,596
2017-11-28T15:13:15.020Z,584
2017-11-28T15:14:24.113Z,568
2017-11-28T15:15:32.966Z,540
2017-11-28T15:16:42.434Z,492
2017-11-28T15:17:50.976Z,476
2017-11-28T15:18:59.513Z,452
2017-11-28T15:20:08.054Z,432
2017-11-28T15:21:16.607Z,408
2017-11-28T15:22:25.402Z,388
2017-11-28T15:23:34.237Z,364
2017-11-28T15:24:43.319Z,340
2017-11-28T15:25:52.677Z,320
2017-11-28T15:27:01.489Z,296
2017-11-28T15:28:10.306Z,276
2017-11-28T15:29:18.844Z,260
2017-11-28T15:30:27.948Z,240
2017-11-28T15:31:36.758Z,224
2017-11-28T15:32:45.840Z,208
2017-11-28T15:33:54.661Z,196
2017-11-28T15:35:04.005Z,184
2017-11-28T15:36:13.146Z,172
2017-11-28T15:37:21.955Z,156
2017-11-28T15:38:30.766Z,148
2017-11-28T15:39:39.306Z,140
2017-11-28T15:40:48.419Z,132
2017-11-28T15:41:57.231Z,124
2017-11-28T15:43:06.039Z,116
2017-11-28T15:44:15.129Z,112
2017-11-28T15:45:23.666Z,104
2017-11-28T15:46:32.473Z,104
2017-11-28T15:47:41.288Z,100
2017-11-28T15:48:49.830Z,96
2017-11-28T15:49:58.368Z,92
2017-11-28T15:51:07.310Z,92
2017-11-28T15:52:15.849Z,84
2017-11-28T15:53:24.941Z,84
2017-11-28T15:54:33.475Z,84
2017-11-28T15:55:43.248Z,80
2017-11-28T15:56:52.353Z,80
2017-11-28T15:58:00.890Z,80
2017-11-28T15:59:09.425Z,80
2017-11-28T16:00:17.962Z,80
2017-11-28T16:01:26.770Z,76
2017-11-28T16:02:35.878Z,80
2017-11-28T16:03:44.693Z,80